This is the latest recevied weather packets stored in our database for station/object WD0REW. If no packets are shown the sender has not sent any weather packets the latest 1 day(s).
| Time | Temp. | Humidity | Pressure | Rain* | Wind** | Luminosity | Snow |
|---|---|---|---|---|---|---|---|
| 1778029109 | 7.78° C | 88% | 1011.3 hPa | 0 mm | 0.89 m/s, 357° | 1 W/m² | - |
| 1778028806 | 7.78° C | 88% | 1011.3 hPa | 0 mm | 0.89 m/s, 353° | 1 W/m² | - |
| 1778028502 | 7.78° C | 89% | 1011.3 hPa | 0 mm | 0.89 m/s, 344° | 1 W/m² | - |
| 1778028199 | 7.78° C | 88% | 1011.3 hPa | 0 mm | 1.34 m/s, 9° | 2 W/m² | - |
| 1778027895 | 7.78° C | 89% | 1010.9 hPa | 0 mm | 0.45 m/s, 359° | 3 W/m² | - |
| 1778027592 | 7.78° C | 89% | 1010.8 hPa | 0 mm | 0 m/s | 3 W/m² | - |
| 1778027288 | 7.78° C | 88% | 1010.7 hPa | 0 mm | 0.89 m/s, 352° | 4 W/m² | - |
| 1778026985 | 7.78° C | 89% | 1010.7 hPa | 0 mm | 0.45 m/s, 355° | 4 W/m² | - |
| 1778026680 | 7.78° C | 88% | 1010.6 hPa | 0 mm | 1.34 m/s, 337° | 8 W/m² | - |
| 1778026378 | 7.78° C | 88% | 1010.7 hPa | 0 mm | 0.45 m/s, 83° | 9 W/m² | - |
| 1778026074 | 7.78° C | 88% | 1010.5 hPa | 0 mm | 1.34 m/s, 347° | 12 W/m² | - |
| 1778025772 | 7.78° C | 89% | 1010.7 hPa | 0 mm | 1.79 m/s, 328° | 7 W/m² | - |
| 1778025469 | 7.78° C | 89% | 1010.4 hPa | 0 mm | 1.79 m/s, 4° | 9 W/m² | - |
| 1778025167 | 7.78° C | 89% | 1010.1 hPa | 0 mm | 1.79 m/s, 17° | 16 W/m² | - |
| 1778024863 | 7.78° C | 89% | 1010.7 hPa | 0 mm | 0.89 m/s, 344° | 21 W/m² | - |
| 1778024561 | 7.78° C | 89% | 1010.8 hPa | 0 mm | 0.89 m/s, 348° | 14 W/m² | - |
| 1778024257 | 7.78° C | 89% | 1010.8 hPa | 0 mm | 1.34 m/s, 317° | 12 W/m² | - |
| 1778023956 | 7.78° C | 89% | 1010.7 hPa | 0 mm | 0.89 m/s, 184° | 8 W/m² | - |
| 1778023652 | 7.78° C | 89% | 1010.4 hPa | 0 mm | 0 m/s | 15 W/m² | - |
| 1778023350 | 7.78° C | 89% | 1010 hPa | 0 mm | 0.89 m/s, 341° | 17 W/m² | - |
| 1778023046 | 7.78° C | 90% | 1010.1 hPa | 0 mm | 0.89 m/s, 345° | 22 W/m² | - |
| 1778022745 | 7.78° C | 91% | 1009.7 hPa | 0 mm | 0.89 m/s, 2° | 35 W/m² | - |
| 1778022443 | 7.78° C | 91% | 1010.1 hPa | 0 mm | 1.34 m/s, 358° | 31 W/m² | - |
| 1778022139 | 7.78° C | 91% | 1010.3 hPa | 0 mm | 0.89 m/s, 358° | 14 W/m² | - |
| 1778021836 | 7.78° C | 90% | 1010.1 hPa | 0 mm | 1.79 m/s, 352° | 26 W/m² | - |
* Rain latest hour (hover to see other rain measurements)
** Current wind speed in m/s (hover to see current wind gust speed)